createdAt,value
2022-12-11T00:00:10.157Z,-1.90
2022-12-11T00:02:36.798Z,-1.90
2022-12-11T00:05:03.859Z,-1.80
2022-12-11T00:07:30.927Z,-1.90
2022-12-11T00:09:57.544Z,-1.90
2022-12-11T00:12:24.271Z,-1.90
2022-12-11T00:14:50.907Z,-1.90
2022-12-11T00:17:17.547Z,-1.80
2022-12-11T00:19:44.443Z,-1.70
2022-12-11T00:22:11.091Z,-1.70
2022-12-11T00:24:37.678Z,-1.70
2022-12-11T00:27:04.258Z,-1.60
2022-12-11T00:29:31.390Z,-1.60
2022-12-11T00:31:58.036Z,-1.60
2022-12-11T00:34:24.940Z,-1.60
2022-12-11T00:36:51.655Z,-1.60
2022-12-11T00:39:18.379Z,-1.50
2022-12-11T00:41:45.036Z,-1.50
2022-12-11T00:44:14.142Z,-1.50
2022-12-11T00:46:40.803Z,-1.40
2022-12-11T00:49:07.418Z,-1.40
2022-12-11T00:51:34.017Z,-1.40
2022-12-11T00:54:00.595Z,-1.40
2022-12-11T00:56:27.278Z,-1.40
2022-12-11T00:58:53.985Z,-1.50
2022-12-11T01:01:23.879Z,-1.60
2022-12-11T01:03:51.783Z,-1.70
2022-12-11T01:06:27.250Z,-1.70
2022-12-11T01:09:13.237Z,-1.70
2022-12-11T01:11:49.635Z,-1.70
2022-12-11T01:14:16.303Z,-1.60
2022-12-11T01:16:43.040Z,-1.60
2022-12-11T01:19:09.649Z,-1.50
2022-12-11T01:21:36.279Z,-1.40
2022-12-11T01:24:03.001Z,-1.40
2022-12-11T01:26:30.583Z,-1.50
2022-12-11T01:28:57.215Z,-1.50
2022-12-11T01:31:23.826Z,-1.60
2022-12-11T01:33:50.439Z,-1.60
2022-12-11T01:36:20.696Z,-1.60
2022-12-11T01:38:49.101Z,-1.60
2022-12-11T01:41:18.245Z,-1.60
2022-12-11T01:44:24.664Z,-1.60
2022-12-11T01:46:51.328Z,-1.50
2022-12-11T01:49:21.516Z,-1.40
2022-12-11T01:51:58.080Z,-1.30
2022-12-11T01:54:27.300Z,-1.30
2022-12-11T01:57:00.099Z,-1.30
2022-12-11T01:59:31.096Z,-1.20
2022-12-11T02:02:06.316Z,-1.30
2022-12-11T02:04:36.567Z,-1.30
2022-12-11T02:07:03.711Z,-1.30
2022-12-11T02:09:34.512Z,-1.30
2022-12-11T02:12:39.793Z,-1.30
2022-12-11T02:15:55.284Z,-1.30
2022-12-11T02:19:01.848Z,-1.30
2022-12-11T02:21:37.684Z,-1.40
2022-12-11T02:24:23.172Z,-1.40
2022-12-11T02:27:23.451Z,-1.50
2022-12-11T02:30:08.411Z,-1.40
2022-12-11T02:32:44.424Z,-1.40
2022-12-11T02:35:26.623Z,-1.50
2022-12-11T02:38:03.716Z,-1.40
2022-12-11T02:40:33.055Z,-1.40
2022-12-11T02:43:14.319Z,-1.40
2022-12-11T02:45:42.677Z,-1.40
2022-12-11T02:48:11.557Z,-1.40
2022-12-11T02:50:46.297Z,-1.30
2022-12-11T02:53:21.496Z,-1.30
2022-12-11T02:55:53.015Z,-1.30
2022-12-11T02:58:28.147Z,-1.30
2022-12-11T03:00:54.732Z,-1.30
2022-12-11T03:03:22.164Z,-1.20
2022-12-11T03:05:48.800Z,-1.20
2022-12-11T03:08:18.690Z,-1.30
2022-12-11T03:10:45.949Z,-1.30
2022-12-11T03:13:18.196Z,-1.40
2022-12-11T03:16:11.152Z,-1.40
2022-12-11T03:19:12.902Z,-1.30
2022-12-11T03:21:49.117Z,-1.30
2022-12-11T03:24:24.557Z,-1.30
2022-12-11T03:27:03.605Z,-1.30
2022-12-11T03:29:58.588Z,-1.20
2022-12-11T03:32:55.382Z,-1.10
2022-12-11T03:35:37.082Z,-1.10
2022-12-11T03:38:16.384Z,-1.10
2022-12-11T03:40:49.102Z,-1.10
2022-12-11T03:43:17.119Z,-1.10
2022-12-11T03:45:46.780Z,-1.10
2022-12-11T03:48:16.392Z,-1.10
2022-12-11T03:50:46.835Z,-1.10
2022-12-11T03:53:18.491Z,-1.20
2022-12-11T03:55:46.137Z,-1.20
2022-12-11T03:58:12.754Z,-1.20
2022-12-11T04:00:39.532Z,-1.20
2022-12-11T04:03:15.800Z,-1.20
2022-12-11T04:05:48.940Z,-1.20
2022-12-11T04:08:18.821Z,-1.20
2022-12-11T04:10:45.569Z,-1.20
2022-12-11T04:13:13.262Z,-1.20
2022-12-11T04:15:40.680Z,-1.20
2022-12-11T04:18:27.985Z,-1.20
2022-12-11T04:21:14.109Z,-1.20
2022-12-11T04:23:59.815Z,-1.20
2022-12-11T04:26:26.752Z,-1.10
2022-12-11T04:28:53.406Z,-1.10
2022-12-11T04:31:22.492Z,-1.10
2022-12-11T04:33:49.387Z,-1.10
2022-12-11T04:36:16.671Z,-1.10
2022-12-11T04:38:43.312Z,-1.00
2022-12-11T04:41:15.613Z,-1.00
2022-12-11T04:43:44.977Z,-0.90
2022-12-11T04:46:24.259Z,-0.80
2022-12-11T04:48:57.378Z,-0.80
2022-12-11T04:51:25.544Z,-0.80
2022-12-11T04:53:54.993Z,-0.80
2022-12-11T04:56:23.316Z,-0.90
2022-12-11T04:58:49.958Z,-0.90
2022-12-11T05:01:20.537Z,-0.90
2022-12-11T05:03:47.499Z,-0.90
2022-12-11T05:06:16.392Z,-0.90
2022-12-11T05:08:46.187Z,-1.00
2022-12-11T05:11:15.222Z,-1.00
2022-12-11T05:13:42.558Z,-0.90
2022-12-11T05:16:14.772Z,-0.90
2022-12-11T05:18:41.895Z,-0.90
2022-12-11T05:21:12.750Z,-0.90
2022-12-11T05:23:40.448Z,-0.90
2022-12-11T05:26:18.775Z,-0.80
2022-12-11T05:28:46.182Z,-0.90
2022-12-11T05:31:18.614Z,-0.90
2022-12-11T05:33:46.774Z,-1.00
2022-12-11T05:36:39.807Z,-1.00
2022-12-11T05:39:06.441Z,-1.00
2022-12-11T05:41:33.100Z,-1.00
2022-12-11T05:44:00.201Z,-1.10
2022-12-11T05:46:30.006Z,-1.20
2022-12-11T05:49:02.370Z,-1.30
2022-12-11T05:51:30.063Z,-1.30
2022-12-11T05:53:57.847Z,-1.30
2022-12-11T05:56:31.773Z,-1.40
2022-12-11T05:59:00.989Z,-1.40
2022-12-11T06:01:38.392Z,-1.30
2022-12-11T06:04:06.948Z,-1.30
2022-12-11T06:06:34.538Z,-1.30
2022-12-11T06:09:04.737Z,-1.30
2022-12-11T06:11:33.253Z,-1.30
2022-12-11T06:14:02.873Z,-1.30
2022-12-11T06:16:29.533Z,-1.30
2022-12-11T06:18:58.429Z,-1.30
2022-12-11T06:21:32.075Z,-1.30
2022-12-11T06:24:01.854Z,-1.30
2022-12-11T06:26:29.949Z,-1.30
2022-12-11T06:28:56.678Z,-1.30
2022-12-11T06:31:23.624Z,-1.30
2022-12-11T06:33:50.421Z,-1.30
2022-12-11T06:36:20.256Z,-1.20
2022-12-11T06:38:47.791Z,-1.30
2022-12-11T06:41:15.197Z,-1.30
2022-12-11T06:43:42.881Z,-1.30
2022-12-11T06:46:17.440Z,-1.30
2022-12-11T06:48:44.805Z,-1.30
2022-12-11T06:51:15.777Z,-1.40
2022-12-11T06:53:43.916Z,-1.30
2022-12-11T06:56:14.843Z,-1.40
2022-12-11T06:58:42.795Z,-1.30
2022-12-11T07:01:20.044Z,-1.40
2022-12-11T07:03:47.529Z,-1.40
2022-12-11T07:06:14.865Z,-1.30
2022-12-11T07:08:41.908Z,-1.30
2022-12-11T07:11:15.029Z,-1.30
2022-12-11T07:13:42.272Z,-1.30
2022-12-11T07:16:10.984Z,-1.30
2022-12-11T07:18:45.892Z,-1.40
2022-12-11T07:21:13.705Z,-1.40
2022-12-11T07:23:40.460Z,-1.40
2022-12-11T07:26:14.984Z,-1.40
2022-12-11T07:28:42.388Z,-1.40
2022-12-11T07:31:12.609Z,-1.40
2022-12-11T07:33:39.865Z,-1.30
2022-12-11T07:36:11.589Z,-1.40
2022-12-11T07:38:38.905Z,-1.50
2022-12-11T07:41:10.376Z,-1.30
2022-12-11T07:43:39.114Z,-1.40
2022-12-11T07:46:14.088Z,-1.30
2022-12-11T07:48:42.879Z,-1.30
2022-12-11T07:51:09.640Z,-1.20
2022-12-11T07:53:36.321Z,-1.20
2022-12-11T07:56:03.656Z,-1.20
2022-12-11T07:58:30.280Z,-1.20
2022-12-11T08:00:58.067Z,-1.20
2022-12-11T08:03:24.970Z,-1.10
2022-12-11T08:05:53.019Z,-1.10
2022-12-11T08:08:23.083Z,-1.10
2022-12-11T08:10:49.701Z,-1.20
2022-12-11T08:13:16.586Z,-1.20
2022-12-11T08:15:43.285Z,-1.20
2022-12-11T08:18:09.886Z,-1.10
2022-12-11T08:20:39.133Z,-1.10
2022-12-11T08:23:05.893Z,-1.20
2022-12-11T08:25:32.773Z,-1.20
2022-12-11T08:27:59.396Z,-1.10
2022-12-11T08:30:25.960Z,-1.10
2022-12-11T08:32:52.653Z,-1.00
2022-12-11T08:35:19.273Z,-1.00
2022-12-11T08:37:45.905Z,-1.00
2022-12-11T08:40:12.774Z,-1.00
2022-12-11T08:42:39.717Z,-1.00
2022-12-11T08:45:07.506Z,-1.00
2022-12-11T08:47:34.095Z,-1.00
2022-12-11T08:50:00.736Z,-1.00
2022-12-11T08:52:31.186Z,-1.00
2022-12-11T08:54:58.286Z,-0.90
2022-12-11T08:57:24.902Z,-0.80
2022-12-11T08:59:51.474Z,-0.70
2022-12-11T09:02:18.071Z,-0.70
2022-12-11T09:04:44.729Z,-0.60
2022-12-11T09:07:12.294Z,-0.60
2022-12-11T09:09:38.953Z,-0.70
2022-12-11T09:12:05.933Z,-0.70
2022-12-11T09:14:32.554Z,-0.70
2022-12-11T09:16:59.217Z,-0.60
2022-12-11T09:19:31.877Z,-0.60
2022-12-11T09:21:58.937Z,-0.70
2022-12-11T09:24:25.558Z,-0.60
2022-12-11T09:26:52.157Z,-0.60
2022-12-11T09:29:18.826Z,-0.50
2022-12-11T09:31:46.738Z,-0.40
2022-12-11T09:34:14.221Z,-0.40
2022-12-11T09:36:44.188Z,-0.40
2022-12-11T09:39:13.514Z,-0.30
2022-12-11T09:42:09.619Z,-0.30
2022-12-11T09:44:57.602Z,-0.30
2022-12-11T09:47:38.505Z,-0.30
2022-12-11T09:50:11.227Z,-0.20
2022-12-11T09:52:56.931Z,-0.20
2022-12-11T09:55:27.229Z,-0.30
2022-12-11T09:58:07.943Z,-0.30
2022-12-11T10:00:47.486Z,-0.30
2022-12-11T10:03:29.143Z,-0.30
2022-12-11T10:06:33.591Z,-0.20
2022-12-11T10:09:25.370Z,-0.20
2022-12-11T10:12:48.338Z,-0.10
2022-12-11T10:15:33.027Z,-0.20
2022-12-11T10:18:04.852Z,-0.10
2022-12-11T10:20:39.035Z,-0.20
2022-12-11T10:23:20.230Z,-0.30
2022-12-11T10:26:20.007Z,-0.20
2022-12-11T10:28:47.298Z,-0.30
2022-12-11T10:31:19.112Z,-0.50
2022-12-11T10:34:03.560Z,-0.50
2022-12-11T10:36:40.036Z,-0.40
2022-12-11T10:39:16.434Z,-0.40
2022-12-11T10:41:46.311Z,-0.40
2022-12-11T10:44:20.550Z,-0.30
2022-12-11T10:46:49.768Z,-0.40
2022-12-11T10:49:30.081Z,-0.40
2022-12-11T10:52:01.329Z,-0.40
2022-12-11T10:54:33.512Z,-0.40
2022-12-11T10:57:02.907Z,-0.40
2022-12-11T10:59:41.110Z,-0.30
2022-12-11T11:02:27.234Z,-0.30
2022-12-11T11:04:57.356Z,-0.40
2022-12-11T11:07:28.184Z,-0.30
2022-12-11T11:10:10.229Z,-0.30
2022-12-11T11:12:44.376Z,-0.40
2022-12-11T11:15:23.058Z,-0.50
2022-12-11T11:17:56.062Z,-0.50
2022-12-11T11:20:29.871Z,-0.40
2022-12-11T11:23:01.365Z,-0.40
2022-12-11T11:25:32.454Z,-0.50
2022-12-11T11:28:04.129Z,-0.50
2022-12-11T11:30:40.575Z,-0.50
2022-12-11T11:33:25.674Z,-0.50
2022-12-11T11:36:05.640Z,-0.40
2022-12-11T11:38:41.534Z,-0.40
2022-12-11T11:41:21.307Z,-0.40
2022-12-11T11:43:54.135Z,-0.50
2022-12-11T11:46:55.056Z,-0.60
2022-12-11T11:50:06.647Z,-0.60
2022-12-11T11:52:44.111Z,-0.50
2022-12-11T11:55:22.361Z,-0.50
2022-12-11T11:58:19.257Z,-0.50
2022-12-11T12:00:46.054Z,-0.40
2022-12-11T12:03:19.700Z,-0.30
2022-12-11T12:05:57.363Z,-0.40
2022-12-11T12:09:00.226Z,-0.40
2022-12-11T12:12:05.873Z,-0.50
2022-12-11T12:14:52.879Z,-0.50
2022-12-11T12:17:55.680Z,-0.40
2022-12-11T12:21:00.714Z,-0.40
2022-12-11T12:23:58.391Z,-0.40
2022-12-11T12:26:31.851Z,-0.50
2022-12-11T12:29:39.356Z,-0.50
2022-12-11T12:32:39.204Z,-0.40
2022-12-11T12:35:34.751Z,-0.30
2022-12-11T12:38:11.518Z,-0.20
2022-12-11T12:41:22.691Z,-0.20
2022-12-11T12:44:13.137Z,-0.20
2022-12-11T12:47:09.748Z,-0.30
2022-12-11T12:49:44.930Z,-0.20
2022-12-11T12:52:24.327Z,-0.20
2022-12-11T12:55:14.969Z,-0.20
2022-12-11T12:57:48.248Z,-0.10
2022-12-11T13:00:38.484Z,-0.20
2022-12-11T13:03:20.249Z,-0.20
2022-12-11T13:06:05.055Z,-0.30
2022-12-11T13:08:48.683Z,-0.30
2022-12-11T13:11:20.947Z,-0.20
2022-12-11T13:14:02.767Z,-0.10
2022-12-11T13:16:39.417Z,-0.10
2022-12-11T13:19:25.271Z,-0.20
2022-12-11T13:22:20.291Z,-0.10
2022-12-11T13:24:53.041Z,-0.20
2022-12-11T13:27:25.611Z,-0.10
2022-12-11T13:30:15.773Z,-0.10
2022-12-11T13:33:15.890Z,-0.10
2022-12-11T13:35:42.847Z,0.00
2022-12-11T13:38:21.050Z,0.00
2022-12-11T13:40:54.548Z,-0.10
2022-12-11T13:43:27.302Z,-0.10
2022-12-11T13:45:59.875Z,0.00
2022-12-11T13:48:39.185Z,0.10
2022-12-11T13:51:06.945Z,0.20
2022-12-11T13:53:33.785Z,0.20
2022-12-11T13:56:06.944Z,0.30
2022-12-11T13:58:37.839Z,0.30
2022-12-11T14:01:22.728Z,0.20
2022-12-11T14:04:00.744Z,0.10
2022-12-11T14:06:29.393Z,0.10
2022-12-11T14:09:00.608Z,0.10
2022-12-11T14:11:32.257Z,0.10
2022-12-11T14:14:02.067Z,0.10
2022-12-11T14:16:29.538Z,0.10
2022-12-11T14:19:06.207Z,0.10
2022-12-11T14:21:33.059Z,0.10
2022-12-11T14:24:03.567Z,0.10
2022-12-11T14:26:34.242Z,0.00
2022-12-11T14:29:02.600Z,0.00
2022-12-11T14:31:36.221Z,-0.10
2022-12-11T14:34:11.801Z,-0.10
2022-12-11T14:36:41.035Z,-0.10
2022-12-11T14:39:18.579Z,-0.10
2022-12-11T14:42:08.876Z,-0.10
2022-12-11T14:45:09.304Z,-0.10
2022-12-11T14:47:44.139Z,-0.10
2022-12-11T14:50:33.033Z,-0.10
2022-12-11T14:53:12.673Z,0.00
2022-12-11T14:55:41.153Z,0.00
2022-12-11T14:58:19.811Z,0.00
2022-12-11T15:01:01.339Z,0.00
2022-12-11T15:03:38.245Z,-0.10
2022-12-11T15:06:28.823Z,-0.10
2022-12-11T15:08:56.423Z,-0.10
2022-12-11T15:11:30.911Z,-0.20
2022-12-11T15:14:00.939Z,-0.10
2022-12-11T15:16:32.664Z,-0.20
2022-12-11T15:19:00.094Z,-0.20
2022-12-11T15:21:32.857Z,-0.20
2022-12-11T15:24:04.267Z,-0.10
2022-12-11T15:26:57.512Z,-0.10
2022-12-11T15:29:37.417Z,-0.10
2022-12-11T15:32:18.937Z,-0.10
2022-12-11T15:34:59.709Z,0.00
2022-12-11T15:37:36.469Z,-0.10
2022-12-11T15:40:04.693Z,0.00
2022-12-11T15:42:39.661Z,0.00
2022-12-11T15:45:12.050Z,0.00
2022-12-11T15:47:38.818Z,0.00
2022-12-11T15:50:28.048Z,-0.10
2022-12-11T15:52:56.560Z,-0.10
2022-12-11T15:55:26.846Z,0.00
2022-12-11T15:57:58.564Z,0.00
2022-12-11T16:00:27.408Z,-0.10
2022-12-11T16:02:55.528Z,-0.10
2022-12-11T16:05:22.346Z,-0.20
2022-12-11T16:07:52.020Z,-0.20
2022-12-11T16:10:20.166Z,-0.30
2022-12-11T16:12:47.217Z,-0.20
2022-12-11T16:15:23.048Z,-0.20
2022-12-11T16:17:50.536Z,-0.30
2022-12-11T16:20:17.320Z,-0.30
2022-12-11T16:22:44.543Z,-0.30
2022-12-11T16:25:11.716Z,-0.30
2022-12-11T16:27:38.532Z,-0.30
2022-12-11T16:30:07.371Z,-0.30
2022-12-11T16:32:34.264Z,-0.20
2022-12-11T16:35:01.040Z,-0.30
2022-12-11T16:37:27.880Z,-0.30
2022-12-11T16:39:54.501Z,-0.30
2022-12-11T16:42:21.181Z,-0.30
2022-12-11T16:44:51.798Z,-0.30
2022-12-11T16:47:18.421Z,-0.30
2022-12-11T16:49:45.134Z,-0.30
2022-12-11T16:52:15.355Z,-0.30
2022-12-11T16:54:45.585Z,-0.30
2022-12-11T16:57:12.180Z,-0.30
2022-12-11T16:59:38.796Z,-0.40
2022-12-11T17:02:06.288Z,-0.40
2022-12-11T17:04:32.896Z,-0.50
2022-12-11T17:06:59.516Z,-0.40
2022-12-11T17:09:26.093Z,-0.40
2022-12-11T17:11:52.708Z,-0.40
2022-12-11T17:14:20.150Z,-0.30
2022-12-11T17:16:47.990Z,-0.30
2022-12-11T17:19:15.120Z,-0.30
2022-12-11T17:21:44.717Z,-0.30
2022-12-11T17:24:13.660Z,-0.20
2022-12-11T17:26:40.445Z,-0.30
2022-12-11T17:29:07.400Z,-0.20
2022-12-11T17:31:34.083Z,-0.30
2022-12-11T17:34:01.049Z,-0.30
2022-12-11T17:36:27.865Z,-0.30
2022-12-11T17:38:54.541Z,-0.30
2022-12-11T17:41:21.757Z,-0.40
2022-12-11T17:43:53.372Z,-0.40
2022-12-11T17:46:21.136Z,-0.40
2022-12-11T17:48:48.764Z,-0.50
2022-12-11T17:51:21.744Z,-0.50
2022-12-11T17:53:48.375Z,-0.50
2022-12-11T17:56:18.761Z,-0.60
2022-12-11T17:58:45.374Z,-0.60
2022-12-11T18:01:15.017Z,-0.60
2022-12-11T18:03:42.237Z,-0.60
2022-12-11T18:06:13.596Z,-0.60
2022-12-11T18:08:41.465Z,-0.60
2022-12-11T18:11:13.068Z,-0.60
2022-12-11T18:13:39.808Z,-0.60
2022-12-11T18:16:22.309Z,-0.60
2022-12-11T18:18:50.166Z,-0.70
2022-12-11T18:21:24.951Z,-0.70
2022-12-11T18:23:52.503Z,-0.60
2022-12-11T18:26:20.087Z,-0.60
2022-12-11T18:28:49.175Z,-0.70
2022-12-11T18:31:16.909Z,-0.70
2022-12-11T18:33:44.802Z,-0.70
2022-12-11T18:36:14.167Z,-0.80
2022-12-11T18:38:42.355Z,-0.80
2022-12-11T18:41:11.551Z,-0.80
2022-12-11T18:43:38.231Z,-0.80
2022-12-11T18:46:07.867Z,-0.70
2022-12-11T18:48:34.707Z,-0.80
2022-12-11T18:51:01.403Z,-0.70
2022-12-11T18:53:27.991Z,-0.70
2022-12-11T18:55:59.995Z,-0.80
2022-12-11T18:58:27.039Z,-0.80
2022-12-11T19:00:53.701Z,-0.90
2022-12-11T19:03:20.298Z,-0.90
2022-12-11T19:05:46.963Z,-0.90
2022-12-11T19:08:13.830Z,-0.90
2022-12-11T19:10:45.699Z,-0.90
2022-12-11T19:13:13.790Z,-0.90
2022-12-11T19:15:43.970Z,-0.90
2022-12-11T19:18:11.273Z,-0.90
2022-12-11T19:20:49.187Z,-0.90
2022-12-11T19:23:18.176Z,-0.90
2022-12-11T19:25:48.668Z,-1.00
2022-12-11T19:28:16.280Z,-1.00
2022-12-11T19:30:48.921Z,-0.90
2022-12-11T19:33:16.945Z,-0.90
2022-12-11T19:35:44.053Z,-0.90
2022-12-11T19:38:12.714Z,-0.90
2022-12-11T19:40:41.901Z,-0.90
2022-12-11T19:43:09.119Z,-0.90
2022-12-11T19:45:36.655Z,-1.00
2022-12-11T19:48:03.468Z,-1.00
2022-12-11T19:50:30.102Z,-1.00
2022-12-11T19:52:56.764Z,-1.00
2022-12-11T19:55:23.333Z,-1.00
2022-12-11T19:57:49.974Z,-1.00
2022-12-11T20:00:17.009Z,-1.00
2022-12-11T20:02:43.728Z,-1.00
2022-12-11T20:05:11.196Z,-1.00
2022-12-11T20:07:38.608Z,-1.00
2022-12-11T20:10:06.203Z,-1.00
2022-12-11T20:12:32.807Z,-1.00
2022-12-11T20:14:59.393Z,-1.10
2022-12-11T20:17:27.519Z,-1.10
2022-12-11T20:19:54.162Z,-1.10
2022-12-11T20:22:20.796Z,-1.10
2022-12-11T20:24:54.191Z,-1.10
2022-12-11T20:27:20.750Z,-1.20
2022-12-11T20:29:47.326Z,-1.10
2022-12-11T20:32:14.508Z,-1.10
2022-12-11T20:34:41.222Z,-1.20
2022-12-11T20:37:08.204Z,-1.20
2022-12-11T20:39:35.515Z,-1.20
2022-12-11T20:42:04.682Z,-1.10
2022-12-11T20:44:32.282Z,-1.10
2022-12-11T20:46:59.120Z,-1.10
2022-12-11T20:49:25.739Z,-1.20
2022-12-11T20:51:52.364Z,-1.20
2022-12-11T20:54:19.099Z,-1.20
2022-12-11T20:56:45.820Z,-1.20
2022-12-11T20:59:13.534Z,-1.20
2022-12-11T21:01:40.365Z,-1.20
2022-12-11T21:04:07.012Z,-1.20
2022-12-11T21:06:36.836Z,-1.20
2022-12-11T21:09:08.928Z,-1.20
2022-12-11T21:11:35.549Z,-1.20
2022-12-11T21:14:03.353Z,-1.20
2022-12-11T21:16:30.336Z,-1.30
2022-12-11T21:18:58.013Z,-1.30
2022-12-11T21:21:26.008Z,-1.20
2022-12-11T21:23:52.854Z,-1.20
2022-12-11T21:26:19.915Z,-1.20
2022-12-11T21:28:46.599Z,-1.30
2022-12-11T21:31:17.291Z,-1.30
2022-12-11T21:33:44.711Z,-1.30
2022-12-11T21:36:13.159Z,-1.20
2022-12-11T21:38:41.588Z,-1.20
2022-12-11T21:41:15.500Z,-1.20
2022-12-11T21:44:19.279Z,-1.20
2022-12-11T21:46:30.615Z,-1.30
2022-12-11T21:48:57.391Z,-1.30
2022-12-11T21:51:36.871Z,-1.30
2022-12-11T21:54:07.225Z,-1.30
2022-12-11T21:56:33.921Z,-1.30
2022-12-11T21:59:01.430Z,-1.30
2022-12-11T22:01:33.219Z,-1.30
2022-12-11T22:03:59.854Z,-1.30
2022-12-11T22:06:26.923Z,-1.30
2022-12-11T22:08:53.547Z,-1.30
2022-12-11T22:11:23.869Z,-1.30
2022-12-11T22:13:50.508Z,-1.30
2022-12-11T22:16:17.400Z,-1.30
2022-12-11T22:18:44.122Z,-1.20
2022-12-11T22:21:10.814Z,-1.20
2022-12-11T22:23:39.293Z,-1.30
2022-12-11T22:26:16.328Z,-1.20
2022-12-11T22:28:43.036Z,-1.20
2022-12-11T22:31:12.521Z,-1.20
2022-12-11T22:33:39.403Z,-1.20
2022-12-11T22:36:06.511Z,-1.20
2022-12-11T22:38:34.644Z,-1.20
2022-12-11T22:41:02.937Z,-1.20
2022-12-11T22:43:29.512Z,-1.20
2022-12-11T22:45:56.145Z,-1.20
2022-12-11T22:48:27.120Z,-1.20
2022-12-11T22:50:54.648Z,-1.20
2022-12-11T22:53:23.044Z,-1.20
2022-12-11T22:55:49.688Z,-1.20
2022-12-11T22:58:21.609Z,-1.10
2022-12-11T23:00:48.947Z,-1.10
2022-12-11T23:03:15.835Z,-1.10
2022-12-11T23:05:43.319Z,-1.00
2022-12-11T23:08:10.142Z,-1.10
2022-12-11T23:10:40.386Z,-1.10
2022-12-11T23:13:09.045Z,-1.00
2022-12-11T23:15:36.224Z,-1.00
2022-12-11T23:18:03.033Z,-0.90
2022-12-11T23:20:29.760Z,-0.90
2022-12-11T23:22:56.537Z,-0.90
2022-12-11T23:25:23.212Z,-0.90
2022-12-11T23:27:49.771Z,-0.90
2022-12-11T23:30:16.335Z,-0.90
2022-12-11T23:32:42.923Z,-0.90
2022-12-11T23:35:09.918Z,-0.90
2022-12-11T23:37:36.820Z,-0.90
2022-12-11T23:40:05.350Z,-0.90
2022-12-11T23:42:33.184Z,-0.90
2022-12-11T23:45:07.465Z,-0.90
2022-12-11T23:47:34.148Z,-0.90
2022-12-11T23:50:00.741Z,-0.90
2022-12-11T23:52:27.328Z,-0.90
2022-12-11T23:54:55.200Z,-0.80
2022-12-11T23:57:21.800Z,-0.90
2022-12-11T23:59:48.348Z,-0.80
